createdAt,value
2022-09-26T00:00:24.500Z,6.93
2022-09-26T00:05:26.375Z,8.10
2022-09-26T00:10:27.749Z,5.90
2022-09-26T00:15:29.148Z,7.13
2022-09-26T00:20:30.531Z,8.30
2022-09-26T00:25:31.906Z,8.80
2022-09-26T00:30:36.124Z,7.22
2022-09-26T00:35:37.978Z,10.82
2022-09-26T00:40:39.571Z,7.05
2022-09-26T00:45:41.219Z,14.35
2022-09-26T00:50:42.611Z,5.15
2022-09-26T00:55:46.038Z,6.47
2022-09-26T01:00:48.328Z,8.50
2022-09-26T01:05:50.017Z,9.45
2022-09-26T01:10:51.501Z,6.65
2022-09-26T01:15:52.914Z,7.05
2022-09-26T01:21:02.958Z,7.05
2022-09-26T01:26:07.380Z,9.20
2022-09-26T01:31:08.805Z,11.57
2022-09-26T01:36:43.358Z,5.82
2022-09-26T01:41:53.896Z,5.20
2022-09-26T01:46:58.402Z,5.45
2022-09-26T01:51:59.694Z,6.57
2022-09-26T01:57:02.246Z,8.00
2022-09-26T02:02:07.940Z,7.50
2022-09-26T02:07:12.275Z,9.35
2022-09-26T02:12:17.318Z,7.72
2022-09-26T02:17:22.812Z,8.15
2022-09-26T02:22:26.744Z,7.13
2022-09-26T02:27:28.888Z,6.50
2022-09-26T02:32:31.334Z,6.75
2022-09-26T02:37:32.689Z,10.18
2022-09-26T02:42:36.772Z,7.13
2022-09-26T02:47:57.101Z,6.88
2022-09-26T02:53:13.471Z,10.88
2022-09-26T02:58:42.403Z,9.38
2022-09-26T03:03:52.147Z,9.93
2022-09-26T03:13:56.217Z,8.18
2022-09-26T03:18:57.518Z,7.35
2022-09-26T03:23:59.067Z,5.80
2022-09-26T03:29:00.404Z,6.10
2022-09-26T03:34:01.938Z,8.82
2022-09-26T03:39:03.351Z,8.65
2022-09-26T03:44:04.679Z,6.07
2022-09-26T03:49:06.069Z,6.78
2022-09-26T03:54:07.487Z,8.63
2022-09-26T03:59:09.221Z,8.25
2022-09-26T04:04:10.595Z,5.95
2022-09-26T04:09:16.519Z,9.00
2022-09-26T04:14:19.883Z,8.13
2022-09-26T04:19:21.239Z,6.38
2022-09-26T04:24:22.762Z,8.07
2022-09-26T04:29:24.142Z,8.65
2022-09-26T04:34:27.439Z,11.63
2022-09-26T04:39:28.947Z,7.68
2022-09-26T04:44:30.436Z,10.00
2022-09-26T04:49:31.918Z,7.45
2022-09-26T04:54:37.360Z,9.63
2022-09-26T04:59:38.701Z,9.85
2022-09-26T05:04:40.084Z,6.90
2022-09-26T05:09:42.871Z,10.98
2022-09-26T05:14:44.739Z,8.50
2022-09-26T05:19:46.091Z,8.60
2022-09-26T05:25:07.000Z,9.68
2022-09-26T05:30:08.585Z,12.15
2022-09-26T05:35:12.156Z,9.30
2022-09-26T05:40:32.450Z,10.88
2022-09-26T05:45:33.962Z,8.90
2022-09-26T05:50:35.442Z,7.47
2022-09-26T05:55:39.829Z,8.52
2022-09-26T06:00:41.295Z,8.45
2022-09-26T06:05:42.871Z,8.18
2022-09-26T06:10:44.212Z,7.03
2022-09-26T06:15:45.579Z,7.47
2022-09-26T06:20:47.155Z,8.35
2022-09-26T06:25:48.543Z,9.57
2022-09-26T06:30:49.870Z,8.95
2022-09-26T06:36:04.968Z,8.85
2022-09-26T06:41:07.540Z,7.13
2022-09-26T06:46:11.945Z,8.88
2022-09-26T06:51:16.332Z,10.75
2022-09-26T06:56:18.218Z,9.05
2022-09-26T07:01:19.633Z,8.38
2022-09-26T07:06:21.388Z,9.95
2022-09-26T07:16:44.719Z,7.97
2022-09-26T07:21:48.204Z,8.90
2022-09-26T07:26:49.885Z,11.95
2022-09-26T07:31:51.276Z,12.57
2022-09-26T07:36:53.488Z,11.15
2022-09-26T07:41:54.862Z,8.82
2022-09-26T07:47:14.897Z,11.30
2022-09-26T07:57:19.480Z,10.85
2022-09-26T08:02:21.964Z,10.82
2022-09-26T08:07:24.580Z,11.27
2022-09-26T08:12:27.060Z,9.65
2022-09-26T08:17:34.686Z,9.88
2022-09-26T08:22:36.071Z,10.63
2022-09-26T08:27:37.447Z,8.75
2022-09-26T08:32:39.035Z,9.40
2022-09-26T08:37:40.426Z,11.55
2022-09-26T08:43:04.279Z,7.85
2022-09-26T08:48:19.401Z,10.98
2022-09-26T08:53:24.462Z,10.63
2022-09-26T08:58:30.349Z,10.27
2022-09-26T09:03:33.818Z,9.95
2022-09-26T09:08:38.091Z,9.65
2022-09-26T09:13:45.981Z,10.35
2022-09-26T09:18:59.055Z,8.10
2022-09-26T09:24:00.458Z,10.75
2022-09-26T09:29:10.322Z,17.83
2022-09-26T09:34:17.663Z,10.63
2022-09-26T09:39:32.847Z,11.55
2022-09-26T09:44:47.818Z,10.77
2022-09-26T09:49:50.084Z,9.35
2022-09-26T09:54:55.569Z,8.48
2022-09-26T10:00:24.046Z,10.40
2022-09-26T10:05:45.440Z,7.72
2022-09-26T10:10:54.645Z,9.70
2022-09-26T10:16:00.997Z,7.05
2022-09-26T10:21:10.954Z,9.30
2022-09-26T10:26:13.806Z,8.48
2022-09-26T10:31:24.330Z,8.10
2022-09-26T10:36:36.664Z,8.10
2022-09-26T10:41:39.192Z,7.97
2022-09-26T10:46:45.328Z,7.40
2022-09-26T10:51:54.560Z,8.57
2022-09-26T10:56:59.446Z,6.75
2022-09-26T11:02:03.628Z,9.15
2022-09-26T11:07:07.473Z,9.02
2022-09-26T11:12:25.548Z,7.72
2022-09-26T11:17:45.131Z,6.50
2022-09-26T11:22:53.469Z,9.48
2022-09-26T11:28:08.408Z,4.65
2022-09-26T11:33:13.472Z,5.22
2022-09-26T11:38:38.300Z,4.78
2022-09-26T11:43:45.057Z,7.50
2022-09-26T11:48:49.347Z,6.35
2022-09-26T11:54:01.017Z,6.43
2022-09-26T11:59:08.883Z,7.82
2022-09-26T12:04:14.165Z,6.43
2022-09-26T12:09:34.211Z,8.40
2022-09-26T12:14:41.822Z,7.00
2022-09-26T12:19:55.723Z,9.05
2022-09-26T12:25:01.282Z,8.23
2022-09-26T12:30:05.944Z,8.70
2022-09-26T12:35:20.158Z,8.48
2022-09-26T12:40:27.428Z,8.05
2022-09-26T12:45:53.337Z,8.75
2022-09-26T12:50:57.745Z,8.18
2022-09-26T12:56:08.337Z,13.88
2022-09-26T13:01:12.055Z,11.30
2022-09-26T13:06:23.216Z,11.55
2022-09-26T13:11:27.332Z,10.13
2022-09-26T13:16:38.523Z,11.05
2022-09-26T13:21:50.431Z,9.52
2022-09-26T13:26:54.877Z,14.93
2022-09-26T13:32:25.552Z,11.77
2022-09-26T13:37:34.269Z,11.52
2022-09-26T13:42:44.302Z,13.33
2022-09-26T13:47:50.763Z,11.55
2022-09-26T13:52:54.982Z,11.55
2022-09-26T13:58:00.873Z,12.65
2022-09-26T14:03:16.359Z,9.48
2022-09-26T14:08:44.494Z,11.57
2022-09-26T14:13:47.238Z,11.55
2022-09-26T14:19:04.119Z,14.13
2022-09-26T14:24:21.053Z,10.57
2022-09-26T14:29:28.646Z,12.88
2022-09-26T14:34:32.708Z,11.75
2022-09-26T14:39:37.932Z,12.05
2022-09-26T14:44:45.807Z,12.85
2022-09-26T14:49:57.375Z,14.18
2022-09-26T14:55:02.974Z,11.07
2022-09-26T15:00:24.319Z,13.10
2022-09-26T15:05:26.160Z,21.33
2022-09-26T15:10:38.438Z,15.85
2022-09-26T15:15:52.224Z,9.25
2022-09-26T15:20:59.330Z,11.18
2022-09-26T15:31:20.462Z,14.88
2022-09-26T15:36:22.251Z,11.23
2022-09-26T15:41:43.891Z,13.23
2022-09-26T15:46:47.000Z,9.73
2022-09-26T15:51:54.536Z,14.35
2022-09-26T15:56:57.814Z,20.77
2022-09-26T16:01:59.782Z,13.10
2022-09-26T16:07:03.213Z,17.83
2022-09-26T16:12:04.746Z,14.30
2022-09-26T16:17:18.850Z,16.42
2022-09-26T16:22:36.468Z,16.42
2022-09-26T16:27:37.831Z,17.70
2022-09-26T16:32:39.226Z,17.83
2022-09-26T16:37:41.393Z,17.80
2022-09-26T16:42:44.797Z,17.67
2022-09-26T16:47:47.877Z,18.60
2022-09-26T16:52:49.300Z,17.30
2022-09-26T16:57:53.882Z,13.98
2022-09-26T17:02:55.322Z,13.68
2022-09-26T17:07:56.832Z,16.83
2022-09-26T17:13:02.647Z,18.35
2022-09-26T17:18:08.986Z,15.48
2022-09-26T17:23:34.967Z,14.20
2022-09-26T17:28:37.603Z,11.90
2022-09-26T17:33:40.868Z,14.98
2022-09-26T17:38:43.369Z,14.77
2022-09-26T17:43:45.175Z,12.45
2022-09-26T17:48:47.231Z,14.02
2022-09-26T17:53:51.003Z,12.50
2022-09-26T17:58:54.275Z,11.40
2022-09-26T18:03:58.958Z,10.98
2022-09-26T18:09:05.873Z,11.52
2022-09-26T18:14:08.205Z,14.50
2022-09-26T18:19:09.750Z,12.00
2022-09-26T18:24:19.249Z,14.32
2022-09-26T18:29:25.507Z,15.27
2022-09-26T18:34:26.888Z,16.25
2022-09-26T18:39:28.870Z,15.18
2022-09-26T18:44:34.994Z,10.43
2022-09-26T18:49:37.344Z,10.65
2022-09-26T18:54:41.469Z,9.80
2022-09-26T18:59:45.360Z,10.43
2022-09-26T19:04:46.770Z,8.27
2022-09-26T19:09:48.411Z,11.35
2022-09-26T19:14:49.833Z,8.13
2022-09-26T19:19:51.226Z,9.77
2022-09-26T19:24:54.330Z,9.40
2022-09-26T19:29:58.924Z,9.05
2022-09-26T19:35:01.759Z,10.07
2022-09-26T19:40:09.369Z,8.10
2022-09-26T19:45:11.346Z,15.18
2022-09-26T19:50:17.879Z,14.07
2022-09-26T19:55:24.283Z,12.07
2022-09-26T20:00:26.517Z,14.35
2022-09-26T20:05:28.180Z,10.02
2022-09-26T20:10:29.643Z,7.95
2022-09-26T20:15:31.557Z,9.85
2022-09-26T20:20:34.914Z,6.68
2022-09-26T20:25:36.674Z,9.60
2022-09-26T20:30:54.455Z,9.23
2022-09-26T20:36:02.634Z,6.03
2022-09-26T20:41:12.709Z,7.43
2022-09-26T20:46:15.051Z,8.43
2022-09-26T20:51:22.675Z,8.90
2022-09-26T20:56:24.024Z,8.55
2022-09-26T21:01:26.550Z,6.10
2022-09-26T21:06:31.777Z,8.00
2022-09-26T21:11:33.360Z,8.95
2022-09-26T21:16:35.494Z,10.40
2022-09-26T21:21:36.889Z,6.60
2022-09-26T21:26:38.536Z,7.13
2022-09-26T21:31:40.257Z,7.97
2022-09-26T21:36:41.856Z,10.40
2022-09-26T21:41:43.320Z,11.48
2022-09-26T21:46:44.711Z,10.70
2022-09-26T21:51:47.980Z,8.07
2022-09-26T21:56:52.161Z,6.18
2022-09-26T22:01:53.581Z,6.45
2022-09-26T22:06:54.959Z,4.05
2022-09-26T22:11:56.362Z,5.72
2022-09-26T22:16:59.092Z,8.25
2022-09-26T22:22:01.259Z,8.63
2022-09-26T22:27:03.012Z,5.97
2022-09-26T22:32:04.643Z,5.68
2022-09-26T22:37:06.029Z,5.13
2022-09-26T22:42:07.577Z,6.07
2022-09-26T22:47:08.885Z,3.75
2022-09-26T22:52:10.218Z,3.35
2022-09-26T22:57:11.620Z,6.22
2022-09-26T23:02:13.095Z,9.18
2022-09-26T23:07:15.450Z,6.68
2022-09-26T23:12:16.972Z,9.45
2022-09-26T23:17:18.435Z,7.30
2022-09-26T23:22:19.842Z,8.93
2022-09-26T23:27:21.931Z,5.55
2022-09-26T23:32:23.359Z,3.65
2022-09-26T23:37:24.677Z,5.68
2022-09-26T23:42:26.076Z,7.50
2022-09-26T23:47:27.458Z,5.57
2022-09-26T23:52:28.785Z,9.48
2022-09-26T23:57:30.148Z,6.55
